sensor_id;sensor_type;location;lat;lon;timestamp;P1;durP1;ratioP1;P2;durP2;ratioP2
20381;SDS011;10350;51.280;12.400;2023-09-19T00:01:39;47.85;;;45.25;;
20381;SDS011;10350;51.280;12.400;2023-09-19T00:04:05;48.78;;;46.22;;
20381;SDS011;10350;51.280;12.400;2023-09-19T00:06:44;47.72;;;45.22;;
20381;SDS011;10350;51.280;12.400;2023-09-19T00:09:10;48.33;;;45.75;;
20381;SDS011;10350;51.280;12.400;2023-09-19T00:11:36;46.70;;;44.22;;
20381;SDS011;10350;51.280;12.400;2023-09-19T00:14:03;47.15;;;44.35;;
20381;SDS011;10350;51.280;12.400;2023-09-19T00:16:33;46.97;;;44.38;;
20381;SDS011;10350;51.280;12.400;2023-09-19T00:19:00;44.63;;;42.17;;
20381;SDS011;10350;51.280;12.400;2023-09-19T00:21:26;47.45;;;44.90;;
20381;SDS011;10350;51.280;12.400;2023-09-19T00:23:53;50.13;;;47.55;;
20381;SDS011;10350;51.280;12.400;2023-09-19T00:26:20;47.03;;;44.58;;
20381;SDS011;10350;51.280;12.400;2023-09-19T00:28:46;47.70;;;45.25;;
20381;SDS011;10350;51.280;12.400;2023-09-19T00:31:12;46.95;;;44.40;;
20381;SDS011;10350;51.280;12.400;2023-09-19T00:33:38;47.47;;;44.85;;
20381;SDS011;10350;51.280;12.400;2023-09-19T00:36:04;49.20;;;46.50;;
20381;SDS011;10350;51.280;12.400;2023-09-19T00:38:30;46.00;;;43.63;;
20381;SDS011;10350;51.280;12.400;2023-09-19T00:40:57;48.28;;;45.70;;
20381;SDS011;10350;51.280;12.400;2023-09-19T00:43:24;48.60;;;46.08;;
20381;SDS011;10350;51.280;12.400;2023-09-19T00:45:52;45.50;;;42.90;;
20381;SDS011;10350;51.280;12.400;2023-09-19T00:48:19;45.13;;;42.80;;
20381;SDS011;10350;51.280;12.400;2023-09-19T00:50:46;47.90;;;45.38;;
20381;SDS011;10350;51.280;12.400;2023-09-19T00:53:17;46.90;;;44.20;;
20381;SDS011;10350;51.280;12.400;2023-09-19T00:55:44;44.53;;;42.20;;
20381;SDS011;10350;51.280;12.400;2023-09-19T00:58:10;46.00;;;43.60;;
20381;SDS011;10350;51.280;12.400;2023-09-19T01:00:36;44.35;;;42.03;;
20381;SDS011;10350;51.280;12.400;2023-09-19T01:03:03;46.42;;;43.95;;
20381;SDS011;10350;51.280;12.400;2023-09-19T01:07:57;49.08;;;46.40;;
20381;SDS011;10350;51.280;12.400;2023-09-19T01:10:23;47.17;;;44.67;;
20381;SDS011;10350;51.280;12.400;2023-09-19T01:15:20;49.65;;;46.97;;
20381;SDS011;10350;51.280;12.400;2023-09-19T01:30:47;51.33;;;48.63;;
20381;SDS011;10350;51.280;12.400;2023-09-19T01:35:42;50.73;;;48.03;;
20381;SDS011;10350;51.280;12.400;2023-09-19T01:38:07;53.25;;;50.45;;
20381;SDS011;10350;51.280;12.400;2023-09-19T01:41:00;53.15;;;50.35;;
20381;SDS011;10350;51.280;12.400;2023-09-19T01:43:27;50.13;;;47.40;;
20381;SDS011;10350;51.280;12.400;2023-09-19T01:46:16;57.30;;;54.17;;
20381;SDS011;10350;51.280;12.400;2023-09-19T01:54:26;54.30;;;51.40;;
20381;SDS011;10350;51.280;12.400;2023-09-19T01:56:57;55.85;;;52.80;;
20381;SDS011;10350;51.280;12.400;2023-09-19T01:59:28;54.25;;;51.35;;
20381;SDS011;10350;51.280;12.400;2023-09-19T02:01:57;54.47;;;51.58;;
20381;SDS011;10350;51.280;12.400;2023-09-19T02:04:23;57.30;;;54.22;;
20381;SDS011;10350;51.280;12.400;2023-09-19T02:06:50;56.42;;;53.45;;
20381;SDS011;10350;51.280;12.400;2023-09-19T02:09:16;57.17;;;54.17;;
20381;SDS011;10350;51.280;12.400;2023-09-19T02:11:42;55.85;;;52.95;;
20381;SDS011;10350;51.280;12.400;2023-09-19T02:14:08;55.83;;;52.92;;
20381;SDS011;10350;51.280;12.400;2023-09-19T02:16:34;56.90;;;53.90;;
20381;SDS011;10350;51.280;12.400;2023-09-19T02:19:00;57.63;;;54.40;;
20381;SDS011;10350;51.280;12.400;2023-09-19T02:21:31;58.85;;;55.75;;
20381;SDS011;10350;51.280;12.400;2023-09-19T02:23:57;55.15;;;52.25;;
20381;SDS011;10350;51.280;12.400;2023-09-19T02:26:24;55.20;;;52.20;;
20381;SDS011;10350;51.280;12.400;2023-09-19T02:28:50;57.88;;;54.65;;
20381;SDS011;10350;51.280;12.400;2023-09-19T02:31:16;55.90;;;52.92;;
20381;SDS011;10350;51.280;12.400;2023-09-19T02:33:42;56.28;;;53.20;;
20381;SDS011;10350;51.280;12.400;2023-09-19T02:36:08;52.85;;;50.05;;
20381;SDS011;10350;51.280;12.400;2023-09-19T02:38:35;52.75;;;50.00;;
20381;SDS011;10350;51.280;12.400;2023-09-19T02:41:02;57.33;;;54.33;;
20381;SDS011;10350;51.280;12.400;2023-09-19T02:43:28;56.30;;;52.95;;
20381;SDS011;10350;51.280;12.400;2023-09-19T02:45:54;59.78;;;56.65;;
20381;SDS011;10350;51.280;12.400;2023-09-19T02:48:22;55.40;;;52.50;;
20381;SDS011;10350;51.280;12.400;2023-09-19T02:50:51;55.88;;;52.88;;
20381;SDS011;10350;51.280;12.400;2023-09-19T02:53:17;53.35;;;50.55;;
20381;SDS011;10350;51.280;12.400;2023-09-19T02:55:44;55.42;;;52.42;;
20381;SDS011;10350;51.280;12.400;2023-09-19T02:58:10;52.63;;;49.92;;
20381;SDS011;10350;51.280;12.400;2023-09-19T03:00:36;54.35;;;51.15;;
20381;SDS011;10350;51.280;12.400;2023-09-19T03:03:02;53.58;;;50.78;;
20381;SDS011;10350;51.280;12.400;2023-09-19T03:07:57;52.50;;;49.75;;
20381;SDS011;10350;51.280;12.400;2023-09-19T03:10:25;52.40;;;49.63;;
20381;SDS011;10350;51.280;12.400;2023-09-19T03:12:53;53.55;;;50.75;;
20381;SDS011;10350;51.280;12.400;2023-09-19T03:15:19;52.30;;;49.55;;
20381;SDS011;10350;51.280;12.400;2023-09-19T03:17:46;52.80;;;49.95;;
20381;SDS011;10350;51.280;12.400;2023-09-19T03:20:15;54.95;;;52.15;;
20381;SDS011;10350;51.280;12.400;2023-09-19T03:22:45;52.57;;;49.87;;
20381;SDS011;10350;51.280;12.400;2023-09-19T03:25:11;49.42;;;46.83;;
20381;SDS011;10350;51.280;12.400;2023-09-19T03:27:38;50.63;;;48.03;;
20381;SDS011;10350;51.280;12.400;2023-09-19T03:30:05;51.90;;;49.15;;
20381;SDS011;10350;51.280;12.400;2023-09-19T03:32:34;49.58;;;46.97;;
20381;SDS011;10350;51.280;12.400;2023-09-19T03:35:00;52.17;;;49.45;;
20381;SDS011;10350;51.280;12.400;2023-09-19T03:37:26;48.72;;;46.13;;
20381;SDS011;10350;51.280;12.400;2023-09-19T03:39:52;49.72;;;47.13;;
20381;SDS011;10350;51.280;12.400;2023-09-19T03:42:18;50.13;;;47.42;;
20381;SDS011;10350;51.280;12.400;2023-09-19T03:44:50;51.47;;;48.78;;
20381;SDS011;10350;51.280;12.400;2023-09-19T03:47:17;51.60;;;48.85;;
20381;SDS011;10350;51.280;12.400;2023-09-19T03:49:44;49.13;;;46.53;;
20381;SDS011;10350;51.280;12.400;2023-09-19T03:52:10;50.00;;;47.30;;
20381;SDS011;10350;51.280;12.400;2023-09-19T03:54:36;51.05;;;48.40;;
20381;SDS011;10350;51.280;12.400;2023-09-19T03:57:02;53.05;;;50.33;;
20381;SDS011;10350;51.280;12.400;2023-09-19T03:59:29;52.95;;;50.15;;
20381;SDS011;10350;51.280;12.400;2023-09-19T04:01:55;51.38;;;48.67;;
20381;SDS011;10350;51.280;12.400;2023-09-19T04:04:22;54.08;;;50.97;;
20381;SDS011;10350;51.280;12.400;2023-09-19T04:06:50;51.58;;;48.67;;
20381;SDS011;10350;51.280;12.400;2023-09-19T04:09:16;52.90;;;50.13;;
20381;SDS011;10350;51.280;12.400;2023-09-19T04:11:41;51.00;;;48.35;;
20381;SDS011;10350;51.280;12.400;2023-09-19T04:14:07;51.28;;;48.50;;
20381;SDS011;10350;51.280;12.400;2023-09-19T04:16:33;48.88;;;46.28;;
20381;SDS011;10350;51.280;12.400;2023-09-19T04:19:00;45.25;;;42.90;;
20381;SDS011;10350;51.280;12.400;2023-09-19T04:21:26;48.50;;;45.95;;
20381;SDS011;10350;51.280;12.400;2023-09-19T04:23:53;48.28;;;45.78;;
20381;SDS011;10350;51.280;12.400;2023-09-19T04:26:19;47.03;;;44.55;;
20381;SDS011;10350;51.280;12.400;2023-09-19T04:28:46;45.10;;;42.73;;
20381;SDS011;10350;51.280;12.400;2023-09-19T04:31:12;46.38;;;43.92;;
20381;SDS011;10350;51.280;12.400;2023-09-19T04:33:39;44.47;;;42.13;;
20381;SDS011;10350;51.280;12.400;2023-09-19T04:36:06;45.45;;;43.03;;
20381;SDS011;10350;51.280;12.400;2023-09-19T04:38:32;43.90;;;41.65;;
20381;SDS011;10350;51.280;12.400;2023-09-19T04:40:58;45.55;;;43.10;;
20381;SDS011;10350;51.280;12.400;2023-09-19T04:43:24;44.45;;;42.13;;
20381;SDS011;10350;51.280;12.400;2023-09-19T04:45:50;44.22;;;41.95;;
20381;SDS011;10350;51.280;12.400;2023-09-19T04:48:19;43.95;;;41.33;;
20381;SDS011;10350;51.280;12.400;2023-09-19T04:50:45;46.63;;;44.08;;
20381;SDS011;10350;51.280;12.400;2023-09-19T04:53:11;41.63;;;39.38;;
20381;SDS011;10350;51.280;12.400;2023-09-19T04:55:37;42.60;;;40.40;;
20381;SDS011;10350;51.280;12.400;2023-09-19T04:58:03;43.67;;;41.22;;
20381;SDS011;10350;51.280;12.400;2023-09-19T05:00:29;41.05;;;38.92;;
20381;SDS011;10350;51.280;12.400;2023-09-19T05:02:56;40.27;;;38.07;;
20381;SDS011;10350;51.280;12.400;2023-09-19T05:05:23;42.92;;;40.70;;
20381;SDS011;10350;51.280;12.400;2023-09-19T05:07:50;40.17;;;38.08;;
20381;SDS011;10350;51.280;12.400;2023-09-19T05:12:44;33.40;;;31.63;;
20381;SDS011;10350;51.280;12.400;2023-09-19T05:15:12;37.25;;;35.35;;
20381;SDS011;10350;51.280;12.400;2023-09-19T05:17:48;38.15;;;36.22;;
20381;SDS011;10350;51.280;12.400;2023-09-19T05:20:15;36.20;;;34.30;;
20381;SDS011;10350;51.280;12.400;2023-09-19T05:22:44;39.70;;;37.50;;
20381;SDS011;10350;51.280;12.400;2023-09-19T05:25:11;36.22;;;34.35;;
20381;SDS011;10350;51.280;12.400;2023-09-19T05:27:42;39.03;;;36.97;;
20381;SDS011;10350;51.280;12.400;2023-09-19T05:30:08;39.08;;;37.05;;
20381;SDS011;10350;51.280;12.400;2023-09-19T05:32:35;37.97;;;35.80;;
20381;SDS011;10350;51.280;12.400;2023-09-19T05:35:01;38.88;;;36.83;;
20381;SDS011;10350;51.280;12.400;2023-09-19T05:37:28;41.43;;;39.23;;
20381;SDS011;10350;51.280;12.400;2023-09-19T05:39:54;41.28;;;39.17;;
20381;SDS011;10350;51.280;12.400;2023-09-19T05:42:20;41.40;;;39.22;;
20381;SDS011;10350;51.280;12.400;2023-09-19T05:44:46;41.78;;;39.58;;
20381;SDS011;10350;51.280;12.400;2023-09-19T05:47:12;39.92;;;37.85;;
20381;SDS011;10350;51.280;12.400;2023-09-19T05:49:38;39.83;;;37.78;;
20381;SDS011;10350;51.280;12.400;2023-09-19T05:52:05;39.58;;;37.55;;
20381;SDS011;10350;51.280;12.400;2023-09-19T05:54:32;38.63;;;36.58;;
20381;SDS011;10350;51.280;12.400;2023-09-19T05:56:59;39.97;;;37.88;;
20381;SDS011;10350;51.280;12.400;2023-09-19T05:59:25;43.22;;;40.92;;
20381;SDS011;10350;51.280;12.400;2023-09-19T06:01:51;39.53;;;37.47;;
20381;SDS011;10350;51.280;12.400;2023-09-19T06:04:17;44.85;;;42.42;;
20381;SDS011;10350;51.280;12.400;2023-09-19T06:06:44;45.67;;;43.30;;
20381;SDS011;10350;51.280;12.400;2023-09-19T06:09:10;45.70;;;43.25;;
20381;SDS011;10350;51.280;12.400;2023-09-19T06:11:36;48.50;;;45.63;;
20381;SDS011;10350;51.280;12.400;2023-09-19T06:14:02;49.13;;;46.55;;
20381;SDS011;10350;51.280;12.400;2023-09-19T06:16:29;46.53;;;44.05;;
20381;SDS011;10350;51.280;12.400;2023-09-19T06:21:24;44.30;;;41.95;;
20381;SDS011;10350;51.280;12.400;2023-09-19T06:23:51;46.95;;;44.50;;
20381;SDS011;10350;51.280;12.400;2023-09-19T06:26:17;49.85;;;47.15;;
20381;SDS011;10350;51.280;12.400;2023-09-19T06:28:43;48.42;;;45.92;;
20381;SDS011;10350;51.280;12.400;2023-09-19T06:31:09;49.35;;;46.75;;
20381;SDS011;10350;51.280;12.400;2023-09-19T06:33:39;47.95;;;45.38;;
20381;SDS011;10350;51.280;12.400;2023-09-19T06:36:05;46.10;;;43.70;;
20381;SDS011;10350;51.280;12.400;2023-09-19T06:38:31;48.50;;;45.67;;
20381;SDS011;10350;51.280;12.400;2023-09-19T06:40:59;46.33;;;43.92;;
20381;SDS011;10350;51.280;12.400;2023-09-19T06:43:26;43.70;;;41.40;;
20381;SDS011;10350;51.280;12.400;2023-09-19T06:45:53;41.57;;;39.43;;
20381;SDS011;10350;51.280;12.400;2023-09-19T06:48:19;43.33;;;40.95;;
20381;SDS011;10350;51.280;12.400;2023-09-19T06:50:46;42.72;;;40.53;;
20381;SDS011;10350;51.280;12.400;2023-09-19T06:53:15;42.20;;;40.03;;
20381;SDS011;10350;51.280;12.400;2023-09-19T06:55:42;43.47;;;40.90;;
20381;SDS011;10350;51.280;12.400;2023-09-19T06:58:09;44.10;;;41.80;;
20381;SDS011;10350;51.280;12.400;2023-09-19T07:00:35;44.97;;;42.63;;
20381;SDS011;10350;51.280;12.400;2023-09-19T07:05:33;41.85;;;39.53;;
20381;SDS011;10350;51.280;12.400;2023-09-19T07:08:03;43.85;;;41.45;;
20381;SDS011;10350;51.280;12.400;2023-09-19T07:10:29;43.85;;;41.17;;
20381;SDS011;10350;51.280;12.400;2023-09-19T07:12:56;42.47;;;40.25;;
20381;SDS011;10350;51.280;12.400;2023-09-19T07:15:23;45.67;;;43.27;;
20381;SDS011;10350;51.280;12.400;2023-09-19T07:17:49;44.22;;;41.92;;
20381;SDS011;10350;51.280;12.400;2023-09-19T07:20:15;43.45;;;41.17;;
20381;SDS011;10350;51.280;12.400;2023-09-19T07:22:41;43.88;;;41.50;;
20381;SDS011;10350;51.280;12.400;2023-09-19T07:25:07;44.67;;;42.30;;
20381;SDS011;10350;51.280;12.400;2023-09-19T07:27:33;47.75;;;45.05;;
20381;SDS011;10350;51.280;12.400;2023-09-19T07:29:59;47.60;;;45.10;;
20381;SDS011;10350;51.280;12.400;2023-09-19T07:32:25;46.80;;;44.35;;
20381;SDS011;10350;51.280;12.400;2023-09-19T07:34:52;47.30;;;44.75;;
20381;SDS011;10350;51.280;12.400;2023-09-19T07:37:19;48.78;;;46.17;;
20381;SDS011;10350;51.280;12.400;2023-09-19T07:39:46;47.58;;;45.08;;
20381;SDS011;10350;51.280;12.400;2023-09-19T07:42:12;46.88;;;44.38;;
20381;SDS011;10350;51.280;12.400;2023-09-19T07:44:43;50.10;;;47.40;;
20381;SDS011;10350;51.280;12.400;2023-09-19T07:47:11;47.20;;;44.70;;
20381;SDS011;10350;51.280;12.400;2023-09-19T07:49:37;48.30;;;45.80;;
20381;SDS011;10350;51.280;12.400;2023-09-19T07:52:04;49.30;;;46.40;;
20381;SDS011;10350;51.280;12.400;2023-09-19T07:54:30;49.53;;;46.83;;
20381;SDS011;10350;51.280;12.400;2023-09-19T07:57:00;47.13;;;44.63;;
20381;SDS011;10350;51.280;12.400;2023-09-19T07:59:26;48.38;;;45.58;;
20381;SDS011;10350;51.280;12.400;2023-09-19T08:01:52;52.10;;;49.28;;
20381;SDS011;10350;51.280;12.400;2023-09-19T08:04:19;51.78;;;49.03;;
20381;SDS011;10350;51.280;12.400;2023-09-19T08:06:45;48.08;;;45.58;;
20381;SDS011;10350;51.280;12.400;2023-09-19T08:09:11;51.15;;;48.45;;
20381;SDS011;10350;51.280;12.400;2023-09-19T08:11:41;51.03;;;48.33;;
20381;SDS011;10350;51.280;12.400;2023-09-19T08:14:07;50.45;;;47.55;;
20381;SDS011;10350;51.280;12.400;2023-09-19T08:16:33;47.72;;;45.25;;
20381;SDS011;10350;51.280;12.400;2023-09-19T08:18:59;50.47;;;47.78;;
20381;SDS011;10350;51.280;12.400;2023-09-19T08:21:25;51.72;;;49.03;;
20381;SDS011;10350;51.280;12.400;2023-09-19T08:23:54;49.53;;;46.92;;
20381;SDS011;10350;51.280;12.400;2023-09-19T08:26:22;48.88;;;46.33;;
20381;SDS011;10350;51.280;12.400;2023-09-19T08:28:49;49.30;;;46.75;;
20381;SDS011;10350;51.280;12.400;2023-09-19T08:31:16;49.72;;;47.00;;
20381;SDS011;10350;51.280;12.400;2023-09-19T08:33:42;50.03;;;47.42;;
20381;SDS011;10350;51.280;12.400;2023-09-19T08:36:13;50.80;;;48.08;;
20381;SDS011;10350;51.280;12.400;2023-09-19T08:38:40;50.13;;;47.10;;
20381;SDS011;10350;51.280;12.400;2023-09-19T08:41:06;48.60;;;45.83;;
20381;SDS011;10350;51.280;12.400;2023-09-19T08:43:33;49.50;;;46.80;;
20381;SDS011;10350;51.280;12.400;2023-09-19T08:48:31;47.30;;;44.83;;
20381;SDS011;10350;51.280;12.400;2023-09-19T08:53:30;46.17;;;43.50;;
20381;SDS011;10350;51.280;12.400;2023-09-19T08:55:57;50.15;;;47.17;;
20381;SDS011;10350;51.280;12.400;2023-09-19T08:58:30;49.58;;;46.97;;
20381;SDS011;10350;51.280;12.400;2023-09-19T09:00:58;51.60;;;48.60;;
20381;SDS011;10350;51.280;12.400;2023-09-19T09:03:26;49.38;;;46.78;;
20381;SDS011;10350;51.280;12.400;2023-09-19T09:05:52;52.25;;;49.50;;
20381;SDS011;10350;51.280;12.400;2023-09-19T09:08:19;50.30;;;47.45;;
20381;SDS011;10350;51.280;12.400;2023-09-19T09:10:46;49.67;;;47.08;;
20381;SDS011;10350;51.280;12.400;2023-09-19T09:13:13;52.33;;;49.58;;
20381;SDS011;10350;51.280;12.400;2023-09-19T09:15:40;52.25;;;49.45;;
20381;SDS011;10350;51.280;12.400;2023-09-19T09:18:07;52.92;;;49.92;;
20381;SDS011;10350;51.280;12.400;2023-09-19T09:20:33;61.20;;;57.80;;
20381;SDS011;10350;51.280;12.400;2023-09-19T09:22:59;59.42;;;56.22;;
20381;SDS011;10350;51.280;12.400;2023-09-19T09:28:19;66.13;;;62.47;;
20381;SDS011;10350;51.280;12.400;2023-09-19T09:30:50;59.22;;;56.13;;
20381;SDS011;10350;51.280;12.400;2023-09-19T09:33:17;61.03;;;57.67;;
20381;SDS011;10350;51.280;12.400;2023-09-19T09:38:19;60.53;;;57.33;;
20381;SDS011;10350;51.280;12.400;2023-09-19T09:40:46;57.90;;;54.80;;
20381;SDS011;10350;51.280;12.400;2023-09-19T09:43:25;59.22;;;56.03;;
20381;SDS011;10350;51.280;12.400;2023-09-19T09:46:36;56.83;;;53.83;;
20381;SDS011;10350;51.280;12.400;2023-09-19T09:48:56;53.55;;;50.45;;
20381;SDS011;10350;51.280;12.400;2023-09-19T09:51:43;58.42;;;55.33;;
20381;SDS011;10350;51.280;12.400;2023-09-19T09:54:22;57.13;;;54.13;;
20381;SDS011;10350;51.280;12.400;2023-09-19T09:56:55;55.72;;;52.63;;
20381;SDS011;10350;51.280;12.400;2023-09-19T09:59:44;55.67;;;52.70;;
20381;SDS011;10350;51.280;12.400;2023-09-19T10:04:54;56.70;;;53.72;;
20381;SDS011;10350;51.280;12.400;2023-09-19T10:07:40;57.28;;;54.30;;
20381;SDS011;10350;51.280;12.400;2023-09-19T10:10:35;57.80;;;54.60;;
20381;SDS011;10350;51.280;12.400;2023-09-19T10:13:08;59.42;;;56.33;;
20381;SDS011;10350;51.280;12.400;2023-09-19T10:15:37;56.85;;;53.85;;
20381;SDS011;10350;51.280;12.400;2023-09-19T10:18:05;56.28;;;53.35;;
20381;SDS011;10350;51.280;12.400;2023-09-19T10:20:43;57.60;;;54.50;;
20381;SDS011;10350;51.280;12.400;2023-09-19T10:23:11;59.17;;;55.88;;
20381;SDS011;10350;51.280;12.400;2023-09-19T10:25:43;59.90;;;56.50;;
20381;SDS011;10350;51.280;12.400;2023-09-19T10:28:12;55.88;;;52.92;;
20381;SDS011;10350;51.280;12.400;2023-09-19T10:30:46;58.15;;;54.95;;
20381;SDS011;10350;51.280;12.400;2023-09-19T10:33:14;58.53;;;55.20;;
20381;SDS011;10350;51.280;12.400;2023-09-19T10:35:44;58.67;;;55.58;;
20381;SDS011;10350;51.280;12.400;2023-09-19T10:38:11;59.35;;;56.25;;
20381;SDS011;10350;51.280;12.400;2023-09-19T10:40:38;60.63;;;57.38;;
20381;SDS011;10350;51.280;12.400;2023-09-19T10:43:20;59.53;;;56.33;;
20381;SDS011;10350;51.280;12.400;2023-09-19T10:45:47;57.33;;;54.33;;
20381;SDS011;10350;51.280;12.400;2023-09-19T10:48:15;56.05;;;52.90;;
20381;SDS011;10350;51.280;12.400;2023-09-19T10:53:12;56.28;;;53.08;;
20381;SDS011;10350;51.280;12.400;2023-09-19T10:55:39;58.67;;;55.58;;
20381;SDS011;10350;51.280;12.400;2023-09-19T10:58:05;54.78;;;51.88;;
20381;SDS011;10350;51.280;12.400;2023-09-19T11:00:54;60.33;;;57.03;;
20381;SDS011;10350;51.280;12.400;2023-09-19T11:03:20;55.20;;;52.33;;
20381;SDS011;10350;51.280;12.400;2023-09-19T11:06:00;55.97;;;52.85;;
20381;SDS011;10350;51.280;12.400;2023-09-19T11:08:26;53.15;;;50.35;;
20381;SDS011;10350;51.280;12.400;2023-09-19T11:10:52;57.38;;;54.28;;
20381;SDS011;10350;51.280;12.400;2023-09-19T11:26:40;57.17;;;54.08;;
20381;SDS011;10350;51.280;12.400;2023-09-19T11:29:27;64.70;;;61.30;;
20381;SDS011;10350;51.280;12.400;2023-09-19T11:31:55;59.90;;;56.50;;
20381;SDS011;10350;51.280;12.400;2023-09-19T11:34:42;63.85;;;60.45;;
20381;SDS011;10350;51.280;12.400;2023-09-19T11:39:38;58.53;;;55.47;;
20381;SDS011;10350;51.280;12.400;2023-09-19T11:42:47;63.38;;;59.72;;
20381;SDS011;10350;51.280;12.400;2023-09-19T11:44:54;60.53;;;57.17;;
20381;SDS011;10350;51.280;12.400;2023-09-19T11:47:21;61.42;;;58.15;;
20381;SDS011;10350;51.280;12.400;2023-09-19T11:49:49;57.15;;;54.10;;
20381;SDS011;10350;51.280;12.400;2023-09-19T11:52:21;61.03;;;57.70;;
20381;SDS011;10350;51.280;12.400;2023-09-19T11:54:55;60.95;;;57.65;;
20381;SDS011;10350;51.280;12.400;2023-09-19T11:57:22;59.40;;;56.30;;
20381;SDS011;10350;51.280;12.400;2023-09-19T11:59:48;61.65;;;58.35;;
20381;SDS011;10350;51.280;12.400;2023-09-19T12:02:18;64.00;;;60.65;;
20381;SDS011;10350;51.280;12.400;2023-09-19T12:04:53;68.78;;;65.13;;
20381;SDS011;10350;51.280;12.400;2023-09-19T12:07:20;70.22;;;66.45;;
20381;SDS011;10350;51.280;12.400;2023-09-19T12:09:50;67.60;;;63.80;;
20381;SDS011;10350;51.280;12.400;2023-09-19T12:12:29;74.75;;;70.78;;
20381;SDS011;10350;51.280;12.400;2023-09-19T12:14:57;74.20;;;70.10;;
20381;SDS011;10350;51.280;12.400;2023-09-19T12:17:23;72.63;;;68.72;;
20381;SDS011;10350;51.280;12.400;2023-09-19T12:19:53;71.30;;;67.45;;
20381;SDS011;10350;51.280;12.400;2023-09-19T12:22:19;74.65;;;70.72;;
20381;SDS011;10350;51.280;12.400;2023-09-19T12:24:46;70.28;;;66.43;;
20381;SDS011;10350;51.280;12.400;2023-09-19T12:27:13;79.10;;;74.30;;
20381;SDS011;10350;51.280;12.400;2023-09-19T12:29:49;78.10;;;73.97;;
20381;SDS011;10350;51.280;12.400;2023-09-19T12:32:15;73.13;;;68.95;;
20381;SDS011;10350;51.280;12.400;2023-09-19T12:34:51;72.13;;;68.32;;
20381;SDS011;10350;51.280;12.400;2023-09-19T12:37:19;75.47;;;71.45;;
20381;SDS011;10350;51.280;12.400;2023-09-19T12:39:48;73.35;;;69.40;;
20381;SDS011;10350;51.280;12.400;2023-09-19T12:42:16;71.22;;;67.45;;
20381;SDS011;10350;51.280;12.400;2023-09-19T12:44:46;69.40;;;65.63;;
20381;SDS011;10350;51.280;12.400;2023-09-19T12:47:14;72.80;;;68.90;;
20381;SDS011;10350;51.280;12.400;2023-09-19T13:00:37;69.82;;;66.13;;
20381;SDS011;10350;51.280;12.400;2023-09-19T13:05:57;68.97;;;65.13;;
20381;SDS011;10350;51.280;12.400;2023-09-19T13:08:29;66.97;;;63.42;;
20381;SDS011;10350;51.280;12.400;2023-09-19T13:14:21;66.97;;;63.38;;
20381;SDS011;10350;51.280;12.400;2023-09-19T13:16:21;63.15;;;59.53;;
20381;SDS011;10350;51.280;12.400;2023-09-19T13:18:55;67.47;;;63.67;;
20381;SDS011;10350;51.280;12.400;2023-09-19T13:21:31;72.05;;;68.22;;
20381;SDS011;10350;51.280;12.400;2023-09-19T13:24:21;70.60;;;66.53;;
20381;SDS011;10350;51.280;12.400;2023-09-19T13:26:55;76.88;;;72.65;;
20381;SDS011;10350;51.280;12.400;2023-09-19T13:29:21;76.22;;;72.10;;
20381;SDS011;10350;51.280;12.400;2023-09-19T13:31:48;73.38;;;69.35;;
20381;SDS011;10350;51.280;12.400;2023-09-19T13:34:14;74.80;;;70.65;;
20381;SDS011;10350;51.280;12.400;2023-09-19T13:36:43;71.32;;;67.53;;
20381;SDS011;10350;51.280;12.400;2023-09-19T13:39:09;74.90;;;70.88;;
20381;SDS011;10350;51.280;12.400;2023-09-19T13:41:38;69.88;;;65.95;;
20381;SDS011;10350;51.280;12.400;2023-09-19T13:44:04;65.25;;;61.78;;
20381;SDS011;10350;51.280;12.400;2023-09-19T13:46:31;68.30;;;64.65;;
20381;SDS011;10350;51.280;12.400;2023-09-19T13:49:00;67.38;;;63.83;;
20381;SDS011;10350;51.280;12.400;2023-09-19T13:51:28;66.28;;;62.58;;
20381;SDS011;10350;51.280;12.400;2023-09-19T13:53:55;64.55;;;60.97;;
20381;SDS011;10350;51.280;12.400;2023-09-19T13:56:21;62.90;;;59.40;;
20381;SDS011;10350;51.280;12.400;2023-09-19T13:58:47;63.78;;;60.33;;
20381;SDS011;10350;51.280;12.400;2023-09-19T14:01:13;63.97;;;60.55;;
20381;SDS011;10350;51.280;12.400;2023-09-19T14:03:39;63.45;;;60.05;;
20381;SDS011;10350;51.280;12.400;2023-09-19T14:06:05;63.30;;;59.90;;
20381;SDS011;10350;51.280;12.400;2023-09-19T14:08:31;59.53;;;56.03;;
20381;SDS011;10350;51.280;12.400;2023-09-19T14:10:59;62.50;;;59.13;;
20381;SDS011;10350;51.280;12.400;2023-09-19T14:13:26;64.85;;;61.33;;
20381;SDS011;10350;51.280;12.400;2023-09-19T14:15:52;64.30;;;60.85;;
20381;SDS011;10350;51.280;12.400;2023-09-19T14:18:18;66.40;;;62.72;;
20381;SDS011;10350;51.280;12.400;2023-09-19T14:20:47;65.03;;;61.22;;
20381;SDS011;10350;51.280;12.400;2023-09-19T14:23:12;67.70;;;63.90;;
20381;SDS011;10350;51.280;12.400;2023-09-19T14:25:38;73.28;;;69.05;;
20381;SDS011;10350;51.280;12.400;2023-09-19T14:28:05;68.32;;;64.65;;
20381;SDS011;10350;51.280;12.400;2023-09-19T14:30:33;65.68;;;61.88;;
20381;SDS011;10350;51.280;12.400;2023-09-19T14:32:59;64.05;;;60.63;;
20381;SDS011;10350;51.280;12.400;2023-09-19T14:35:26;64.13;;;60.67;;
20381;SDS011;10350;51.280;12.400;2023-09-19T14:37:51;65.22;;;61.65;;
20381;SDS011;10350;51.280;12.400;2023-09-19T14:40:17;64.40;;;60.95;;
20381;SDS011;10350;51.280;12.400;2023-09-19T14:42:44;65.32;;;61.58;;
20381;SDS011;10350;51.280;12.400;2023-09-19T14:45:10;63.55;;;60.00;;
20381;SDS011;10350;51.280;12.400;2023-09-19T14:47:43;64.75;;;61.20;;
20381;SDS011;10350;51.280;12.400;2023-09-19T14:50:09;65.40;;;61.85;;
20381;SDS011;10350;51.280;12.400;2023-09-19T14:52:37;62.38;;;59.05;;
20381;SDS011;10350;51.280;12.400;2023-09-19T14:55:04;66.10;;;62.60;;
20381;SDS011;10350;51.280;12.400;2023-09-19T14:57:31;66.22;;;62.70;;
20381;SDS011;10350;51.280;12.400;2023-09-19T14:59:57;68.45;;;64.70;;
20381;SDS011;10350;51.280;12.400;2023-09-19T15:02:23;69.82;;;64.95;;
20381;SDS011;10350;51.280;12.400;2023-09-19T15:04:51;62.50;;;58.97;;
20381;SDS011;10350;51.280;12.400;2023-09-19T15:07:17;64.18;;;60.78;;
20381;SDS011;10350;51.280;12.400;2023-09-19T15:09:43;62.03;;;58.72;;
20381;SDS011;10350;51.280;12.400;2023-09-19T15:12:10;61.55;;;58.13;;
20381;SDS011;10350;51.280;12.400;2023-09-19T15:14:39;63.35;;;59.95;;
20381;SDS011;10350;51.280;12.400;2023-09-19T15:17:05;61.05;;;57.75;;
20381;SDS011;10350;51.280;12.400;2023-09-19T15:19:31;62.10;;;58.80;;
20381;SDS011;10350;51.280;12.400;2023-09-19T15:21:57;66.57;;;62.88;;
20381;SDS011;10350;51.280;12.400;2023-09-19T15:24:23;61.88;;;58.45;;
20381;SDS011;10350;51.280;12.400;2023-09-19T15:29:17;64.00;;;60.58;;
20381;SDS011;10350;51.280;12.400;2023-09-19T15:31:44;60.80;;;57.30;;
20381;SDS011;10350;51.280;12.400;2023-09-19T15:34:10;61.78;;;58.25;;
20381;SDS011;10350;51.280;12.400;2023-09-19T15:36:39;63.05;;;59.58;;
20381;SDS011;10350;51.280;12.400;2023-09-19T15:39:07;67.40;;;63.70;;
20381;SDS011;10350;51.280;12.400;2023-09-19T15:41:36;60.33;;;57.03;;